Time;durP1;ratioP1;P1;durP2;ratioP2;P2;SDS_P1;SDS_P2;PMS_P1;PMS_P2;Temp;Humidity;BMP_temperature;BMP_pressure;BME280_temperature;BME280_humidity;BME280_pressure;Samples;Min_cycle;Max_cycle;Signal;HPM_P1;HPM_P2
2021/12/30 00:01:05;;;;;;;8.17;2.77;;;11.70;99.90;;;;;;4988589;28;20464;-77
2021/12/30 00:03:33;;;;;;;4.23;2.73;;;11.70;99.90;;;;;;4992535;28;21026;-78
2021/12/30 00:06:00;;;;;;;12.73;2.77;;;11.70;99.90;;;;;;4992418;28;20447;-77
2021/12/30 00:08:26;;;;;;;4.43;2.87;;;11.70;99.90;;;;;;4991290;28;20451;-77
2021/12/30 00:10:53;;;;;;;7.10;3.03;;;11.70;99.90;;;;;;4991146;28;20459;-77
2021/12/30 00:13:21;;;;;;;9.60;3.17;;;11.70;99.90;;;;;;4983747;28;20478;-77
2021/12/30 00:15:47;;;;;;;10.70;2.50;;;11.70;99.90;;;;;;4996413;28;20478;-77
2021/12/30 00:18:14;;;;;;;4.70;2.53;;;11.70;99.90;;;;;;4987577;28;20459;-77
2021/12/30 00:20:42;;;;;;;12.57;3.10;;;11.70;99.90;;;;;;4976844;28;20526;-77
2021/12/30 00:23:10;;;;;;;8.10;2.30;;;11.70;99.90;;;;;;4994564;28;20462;-77
2021/12/30 00:25:40;;;;;;;10.97;2.57;;;11.70;99.90;;;;;;4995216;28;20988;-78
2021/12/30 00:28:08;;;;;;;7.37;2.77;;;11.70;99.90;;;;;;4988714;28;20825;-77
2021/12/30 00:30:35;;;;;;;9.60;2.77;;;11.70;99.90;;;;;;4980423;28;20459;-77
2021/12/30 00:33:01;;;;;;;3.97;2.27;;;11.70;99.90;;;;;;4982749;28;20499;-77
2021/12/30 00:35:28;;;;;;;7.30;3.23;;;11.70;99.90;;;;;;4995565;28;20511;-77
2021/12/30 00:37:57;;;;;;;8.20;2.60;;;11.70;99.90;;;;;;4996768;28;20494;-77
2021/12/30 00:40:23;;;;;;;9.93;2.90;;;11.70;99.90;;;;;;4994751;28;20811;-77
2021/12/30 00:42:50;;;;;;;5.53;2.50;;;11.70;99.90;;;;;;4991101;28;20543;-77
2021/12/30 00:45:17;;;;;;;14.43;3.23;;;11.70;99.90;;;;;;4994704;28;21010;-77
2021/12/30 00:47:44;;;;;;;8.40;2.57;;;11.70;99.90;;;;;;4995247;28;20879;-77
2021/12/30 00:50:11;;;;;;;10.03;2.80;;;11.70;99.90;;;;;;4980444;28;20456;-77
2021/12/30 00:52:38;;;;;;;6.87;2.90;;;11.80;99.90;;;;;;4993908;28;20541;-77
2021/12/30 00:55:07;;;;;;;3.40;2.40;;;11.80;99.90;;;;;;4989270;28;20901;-78
2021/12/30 00:57:34;;;;;;;13.07;3.30;;;11.80;99.90;;;;;;4994283;28;20482;-77
2021/12/30 01:00:00;;;;;;;13.93;3.40;;;11.70;99.90;;;;;;4989808;28;20460;-78
2021/12/30 01:02:27;;;;;;;8.60;3.10;;;11.60;99.90;;;;;;4991383;28;20471;-77
2021/12/30 01:04:54;;;;;;;7.57;2.43;;;11.60;99.90;;;;;;4996789;28;20454;-77
2021/12/30 01:07:21;;;;;;;13.87;3.00;;;11.60;99.90;;;;;;4996101;28;20480;-77
2021/12/30 01:09:48;;;;;;;16.73;3.80;;;11.60;99.90;;;;;;4994918;28;20460;-77
2021/12/30 01:12:16;;;;;;;6.70;3.27;;;11.60;99.90;;;;;;4995903;28;20475;-77
2021/12/30 01:14:46;;;;;;;7.27;2.97;;;11.60;99.90;;;;;;4996754;28;20541;-78
2021/12/30 01:17:19;;;;;;;14.23;3.20;;;11.50;99.90;;;;;;4992423;28;20543;-78
2021/12/30 01:19:45;;;;;;;9.87;2.73;;;11.50;99.90;;;;;;4981371;28;20527;-78
2021/12/30 01:22:16;;;;;;;7.83;2.93;;;11.40;99.90;;;;;;4996891;28;20891;-77
2021/12/30 01:24:43;;;;;;;11.10;2.97;;;11.40;99.90;;;;;;4997262;28;20505;-77
2021/12/30 01:27:10;;;;;;;9.03;3.00;;;11.40;99.90;;;;;;4995580;28;20455;-77
2021/12/30 01:29:38;;;;;;;8.00;2.50;;;11.40;99.90;;;;;;4996677;28;20521;-77
2021/12/30 01:32:06;;;;;;;13.33;3.00;;;11.40;99.90;;;;;;4996776;28;21057;-78
2021/12/30 01:34:33;;;;;;;9.60;3.20;;;11.40;99.90;;;;;;4982295;28;20463;-78
2021/12/30 01:37:02;;;;;;;3.90;2.20;;;11.40;99.90;;;;;;4979285;28;20487;-78
2021/12/30 01:39:30;;;;;;;10.17;2.83;;;11.40;99.90;;;;;;4980154;28;20487;-78
2021/12/30 01:41:58;;;;;;;9.20;3.13;;;11.30;99.90;;;;;;4995450;28;20459;-78
2021/12/30 01:44:25;;;;;;;10.93;3.00;;;11.40;99.90;;;;;;4998129;28;20538;-78
2021/12/30 01:46:53;;;;;;;6.17;2.60;;;11.30;99.90;;;;;;4998043;28;20502;-78
2021/12/30 01:49:21;;;;;;;6.13;3.00;;;11.30;99.90;;;;;;4996265;28;20562;-78
2021/12/30 01:51:49;;;;;;;10.30;2.80;;;11.30;99.90;;;;;;4994505;28;20459;-78
2021/12/30 01:54:15;;;;;;;9.60;2.67;;;11.30;99.90;;;;;;4983398;28;20977;-77
2021/12/30 01:56:42;;;;;;;10.57;2.90;;;11.20;99.90;;;;;;4988858;28;20502;-77
2021/12/30 01:59:10;;;;;;;8.13;2.90;;;11.20;99.90;;;;;;4979621;28;20800;-77
2021/12/30 02:01:36;;;;;;;12.10;3.43;;;11.20;99.90;;;;;;4988966;28;20460;-77
2021/12/30 02:04:05;;;;;;;5.87;2.27;;;11.20;99.90;;;;;;4974433;28;20448;-77
2021/12/30 02:06:32;;;;;;;7.53;3.27;;;11.20;99.90;;;;;;4974392;28;20456;-77
2021/12/30 02:09:00;;;;;;;8.53;3.00;;;11.20;99.90;;;;;;4990583;28;20455;-77
2021/12/30 02:11:26;;;;;;;9.43;2.87;;;11.20;99.90;;;;;;4991727;28;20459;-77
2021/12/30 02:13:54;;;;;;;9.10;2.90;;;11.20;99.90;;;;;;4990558;28;20483;-76
2021/12/30 02:16:21;;;;;;;13.40;3.30;;;11.20;99.90;;;;;;4990011;28;20490;-77
2021/12/30 02:18:48;;;;;;;8.80;3.07;;;11.20;99.90;;;;;;4998379;28;20462;-77
2021/12/30 02:21:17;;;;;;;7.37;3.20;;;11.20;99.90;;;;;;4988210;28;20460;-77
2021/12/30 02:23:43;;;;;;;11.83;3.77;;;11.20;99.90;;;;;;4972883;28;20984;-77
2021/12/30 02:26:13;;;;;;;10.97;2.93;;;11.20;99.90;;;;;;4989086;28;20874;-76
2021/12/30 02:28:41;;;;;;;7.97;3.20;;;11.20;99.90;;;;;;4989358;28;20547;-77
2021/12/30 02:31:12;;;;;;;6.63;2.83;;;11.20;99.90;;;;;;4988036;28;20460;-77
2021/12/30 02:33:39;;;;;;;11.47;3.70;;;11.20;99.90;;;;;;4988724;28;21150;-76
2021/12/30 02:36:07;;;;;;;9.80;3.70;;;11.20;99.90;;;;;;4992157;28;20521;-77
2021/12/30 02:38:35;;;;;;;9.00;3.23;;;11.10;99.90;;;;;;4992956;28;20467;-76
2021/12/30 02:41:04;;;;;;;13.37;3.70;;;11.10;99.90;;;;;;4992124;28;20459;-76
2021/12/30 02:43:32;;;;;;;7.83;3.47;;;11.10;99.90;;;;;;4975600;28;20479;-76
2021/12/30 02:46:01;;;;;;;15.30;3.87;;;11.10;99.90;;;;;;4980649;28;20934;-77
2021/12/30 02:48:33;;;;;;;8.20;3.23;;;11.10;99.90;;;;;;4986252;28;20892;-76
2021/12/30 02:51:02;;;;;;;9.07;2.90;;;11.10;99.90;;;;;;4973924;28;20456;-76
2021/12/30 02:53:30;;;;;;;9.60;3.13;;;11.10;99.90;;;;;;4975729;28;20507;-77
2021/12/30 02:55:58;;;;;;;9.43;3.00;;;11.10;99.90;;;;;;4984788;28;20541;-76
2021/12/30 02:58:27;;;;;;;6.80;2.80;;;11.10;99.90;;;;;;4984161;28;20506;-77
2021/12/30 03:01:00;;;;;;;11.13;3.23;;;11.10;99.90;;;;;;4991359;28;20821;-77
2021/12/30 03:03:27;;;;;;;10.93;3.20;;;11.00;99.90;;;;;;4982832;28;20479;-77
2021/12/30 03:05:57;;;;;;;14.80;3.20;;;11.00;99.90;;;;;;4975992;28;20484;-77
2021/12/30 03:08:23;;;;;;;17.40;3.77;;;10.90;99.90;;;;;;4982414;28;20448;-77
2021/12/30 03:10:51;;;;;;;11.13;3.40;;;10.90;99.90;;;;;;4989212;28;20459;-76
2021/12/30 03:13:25;;;;;;;15.63;3.50;;;10.90;99.90;;;;;;4991111;28;21211;-77
2021/12/30 03:15:52;;;;;;;10.33;3.37;;;10.90;99.90;;;;;;4991805;28;20569;-77
2021/12/30 03:18:18;;;;;;;7.80;2.87;;;10.80;99.90;;;;;;4984923;28;20467;-77
2021/12/30 03:20:45;;;;;;;13.20;3.07;;;10.90;99.90;;;;;;4979951;28;20451;-77
2021/12/30 03:23:12;;;;;;;15.80;3.47;;;10.80;99.90;;;;;;4993569;28;21106;-77
2021/12/30 03:25:38;;;;;;;17.43;3.27;;;10.90;99.90;;;;;;4992720;28;20479;-77
2021/12/30 03:28:05;;;;;;;17.50;3.73;;;10.90;99.90;;;;;;4990510;28;20459;-77
2021/12/30 03:30:33;;;;;;;17.10;3.30;;;10.90;99.90;;;;;;4993467;28;20533;-77
2021/12/30 03:33:00;;;;;;;12.30;3.13;;;10.80;99.90;;;;;;4977734;28;20478;-77
2021/12/30 03:35:26;;;;;;;13.33;3.10;;;10.90;99.90;;;;;;4993528;28;20481;-77
2021/12/30 03:37:53;;;;;;;13.03;2.50;;;10.90;99.90;;;;;;4993131;28;20874;-77
2021/12/30 03:40:20;;;;;;;13.40;2.93;;;10.90;99.90;;;;;;4992133;28;20537;-77
2021/12/30 03:42:46;;;;;;;11.63;2.90;;;10.90;99.90;;;;;;4994181;28;20902;-77
2021/12/30 03:45:15;;;;;;;13.97;3.03;;;10.90;99.90;;;;;;4993184;28;20505;-77
2021/12/30 03:47:46;;;;;;;15.33;3.50;;;10.90;99.90;;;;;;4989648;28;20519;-77
2021/12/30 03:50:19;;;;;;;9.83;2.37;;;10.90;99.90;;;;;;4977280;28;20928;-77
2021/12/30 03:52:47;;;;;;;8.43;3.10;;;10.90;99.90;;;;;;4980807;28;20488;-77
2021/12/30 03:55:13;;;;;;;12.33;3.20;;;10.80;99.90;;;;;;4996652;28;20471;-78
2021/12/30 03:57:40;;;;;;;11.23;3.10;;;10.70;99.90;;;;;;4998856;28;20486;-77
2021/12/30 04:00:09;;;;;;;15.87;2.90;;;10.70;99.90;;;;;;4997840;28;20517;-77
2021/12/30 04:02:35;;;;;;;10.27;2.80;;;10.50;99.90;;;;;;4989237;28;21007;-77
2021/12/30 04:05:04;;;;;;;12.77;3.40;;;10.50;99.90;;;;;;4997383;28;20970;-77
2021/12/30 04:07:31;;;;;;;10.13;2.80;;;10.40;99.90;;;;;;4990511;28;20455;-77
2021/12/30 04:09:58;;;;;;;6.47;2.57;;;10.30;99.90;;;;;;4996316;28;20458;-77
2021/12/30 04:12:24;;;;;;;13.13;2.97;;;10.30;99.90;;;;;;4986270;28;20980;-77
2021/12/30 04:14:51;;;;;;;14.17;3.47;;;10.30;99.90;;;;;;4975620;28;20459;-77
2021/12/30 04:17:18;;;;;;;12.70;3.13;;;10.30;99.90;;;;;;4992919;28;20556;-77
2021/12/30 04:19:45;;;;;;;10.40;2.63;;;10.30;99.90;;;;;;4977911;28;20460;-77
2021/12/30 04:22:14;;;;;;;11.67;2.60;;;10.30;99.90;;;;;;4978116;28;20602;-77
2021/12/30 04:24:41;;;;;;;10.53;2.50;;;10.30;99.90;;;;;;4990783;28;20466;-77
2021/12/30 04:27:08;;;;;;;11.13;3.60;;;10.40;99.90;;;;;;4995449;28;20451;-77
2021/12/30 04:29:34;;;;;;;8.43;2.47;;;10.40;99.90;;;;;;4994827;28;20467;-77
2021/12/30 04:32:01;;;;;;;19.27;3.30;;;10.50;99.90;;;;;;4995357;28;20529;-77
2021/12/30 04:34:28;;;;;;;7.90;2.67;;;10.50;99.90;;;;;;4983255;28;20452;-77
2021/12/30 04:36:58;;;;;;;11.00;2.90;;;10.50;99.90;;;;;;4989782;28;20999;-77
2021/12/30 04:39:26;;;;;;;10.20;2.70;;;10.50;99.90;;;;;;4993872;28;20463;-77
2021/12/30 04:41:52;;;;;;;8.90;2.93;;;10.50;99.90;;;;;;4994762;28;20462;-77
2021/12/30 04:44:19;;;;;;;8.20;2.43;;;10.50;99.90;;;;;;4986571;28;20960;-77
2021/12/30 04:46:46;;;;;;;8.60;2.80;;;10.60;99.90;;;;;;4989873;28;20459;-76
2021/12/30 04:49:13;;;;;;;11.80;2.60;;;10.60;99.90;;;;;;4985501;28;20875;-77
2021/12/30 04:51:39;;;;;;;9.57;3.23;;;10.60;99.90;;;;;;4976613;28;20468;-77
2021/12/30 04:54:06;;;;;;;8.33;2.80;;;10.50;99.90;;;;;;4987095;28;20519;-77
2021/12/30 04:56:34;;;;;;;10.90;2.93;;;10.50;99.90;;;;;;4990784;28;20514;-77
2021/12/30 04:59:00;;;;;;;11.40;2.57;;;10.40;99.90;;;;;;4976923;28;20514;-77
2021/12/30 05:01:27;;;;;;;12.70;2.60;;;10.40;99.90;;;;;;4984736;28;20484;-77
2021/12/30 05:03:54;;;;;;;10.97;3.20;;;10.30;99.90;;;;;;4984800;28;20475;-77
2021/12/30 05:06:21;;;;;;;8.07;2.90;;;10.30;99.90;;;;;;4981683;28;20460;-77
2021/12/30 05:08:47;;;;;;;16.70;3.40;;;10.20;99.90;;;;;;4986351;28;20459;-77
2021/12/30 05:11:14;;;;;;;10.60;3.30;;;10.20;99.90;;;;;;4976333;28;20547;-77
2021/12/30 05:13:42;;;;;;;12.50;3.23;;;10.20;99.90;;;;;;4975492;28;20992;-77
2021/12/30 05:16:09;;;;;;;6.10;2.90;;;10.10;99.90;;;;;;4988292;28;20538;-77
2021/12/30 05:18:37;;;;;;;17.93;3.20;;;10.10;99.90;;;;;;4993542;28;20482;-76
2021/12/30 05:21:05;;;;;;;8.80;2.67;;;10.10;99.90;;;;;;4980791;28;20483;-77
2021/12/30 05:23:33;;;;;;;14.70;4.03;;;10.10;99.90;;;;;;4994735;28;20505;-77
2021/12/30 05:25:59;;;;;;;18.90;4.23;;;10.10;99.90;;;;;;4992166;28;20994;-77
2021/12/30 05:28:26;;;;;;;12.13;2.73;;;10.10;99.90;;;;;;4994105;28;20514;-77
2021/12/30 05:30:55;;;;;;;14.83;3.10;;;10.10;99.90;;;;;;4991535;28;20505;-77
2021/12/30 05:33:21;;;;;;;18.00;3.53;;;10.00;99.90;;;;;;4983196;28;21038;-77
2021/12/30 05:35:48;;;;;;;7.37;3.23;;;10.00;99.90;;;;;;4993336;28;20459;-77
2021/12/30 05:38:17;;;;;;;10.37;3.23;;;10.00;99.90;;;;;;4993711;28;20496;-77
2021/12/30 05:40:44;;;;;;;19.53;4.30;;;10.00;99.90;;;;;;4997645;28;20455;-77
2021/12/30 05:43:10;;;;;;;10.70;3.10;;;10.00;99.90;;;;;;4998036;28;20530;-77
2021/12/30 05:45:37;;;;;;;8.60;3.17;;;10.00;99.90;;;;;;4991107;28;20510;-78
2021/12/30 05:48:06;;;;;;;11.20;3.00;;;10.00;99.90;;;;;;4986324;28;20868;-78
2021/12/30 05:50:32;;;;;;;9.20;3.17;;;10.00;99.90;;;;;;4990232;28;20475;-77
2021/12/30 05:52:59;;;;;;;8.03;2.87;;;10.00;99.90;;;;;;4986197;28;20483;-79
2021/12/30 05:55:28;;;;;;;19.47;3.97;;;10.00;99.90;;;;;;4984075;28;20447;-79
2021/12/30 05:57:56;;;;;;;10.17;2.83;;;10.00;99.90;;;;;;4981079;28;20526;-79
2021/12/30 06:00:24;;;;;;;8.53;3.30;;;9.90;99.90;;;;;;4992641;28;20522;-79
2021/12/30 06:02:51;;;;;;;6.20;2.60;;;9.90;99.90;;;;;;4985059;28;21048;-79
2021/12/30 06:05:19;;;;;;;11.23;3.43;;;9.90;99.90;;;;;;4994917;28;20487;-79
2021/12/30 06:07:46;;;;;;;16.33;4.30;;;9.90;99.90;;;;;;4988392;28;20478;-79
2021/12/30 06:10:13;;;;;;;9.63;3.50;;;9.80;99.90;;;;;;5001095;28;20451;-79
2021/12/30 06:12:42;;;;;;;22.80;3.50;;;9.70;99.90;;;;;;4984719;28;20484;-79
2021/12/30 06:15:11;;;;;;;18.17;4.20;;;9.70;99.90;;;;;;4995102;28;20462;-78
2021/12/30 06:17:38;;;;;;;8.37;3.33;;;9.70;99.90;;;;;;4989287;28;20554;-79
2021/12/30 06:20:07;;;;;;;14.80;3.20;;;9.70;99.90;;;;;;4993539;28;20494;-80
2021/12/30 06:22:36;;;;;;;5.90;3.60;;;9.70;99.90;;;;;;4975531;28;20476;-80
2021/12/30 06:25:03;;;;;;;13.23;3.80;;;9.60;99.90;;;;;;4994122;28;20459;-79
2021/12/30 06:27:30;;;;;;;12.00;4.23;;;9.60;99.90;;;;;;4980759;28;20510;-79
2021/12/30 06:29:57;;;;;;;18.67;3.77;;;9.70;99.90;;;;;;4973937;28;20455;-80
2021/12/30 06:32:23;;;;;;;11.03;3.60;;;9.70;99.90;;;;;;4976276;28;20522;-79
2021/12/30 06:34:50;;;;;;;11.53;3.73;;;9.80;99.90;;;;;;4998370;28;20486;-80
2021/12/30 06:37:16;;;;;;;9.70;4.00;;;9.70;99.90;;;;;;4999669;28;20482;-79
2021/12/30 06:39:44;;;;;;;15.23;4.60;;;9.80;99.90;;;;;;4994949;28;20509;-79
2021/12/30 06:42:11;;;;;;;20.50;4.90;;;9.80;99.90;;;;;;5002296;28;20518;-79
2021/12/30 06:44:38;;;;;;;14.37;4.97;;;9.80;99.90;;;;;;4995802;28;20470;-80
2021/12/30 06:47:05;;;;;;;21.70;5.67;;;9.70;99.90;;;;;;4987644;28;20479;-80
2021/12/30 06:49:35;;;;;;;14.50;4.30;;;9.70;99.90;;;;;;4973926;28;20460;-80
2021/12/30 06:52:02;;;;;;;15.80;4.60;;;9.70;99.90;;;;;;4988418;28;20487;-80
2021/12/30 06:54:29;;;;;;;13.43;4.90;;;9.70;99.90;;;;;;4980409;28;20451;-80
2021/12/30 06:56:59;;;;;;;16.70;5.50;;;9.70;99.90;;;;;;4980926;28;20852;-80
2021/12/30 06:59:26;;;;;;;15.67;5.50;;;9.70;99.90;;;;;;4992542;28;20459;-78
2021/12/30 07:01:53;;;;;;;24.73;5.20;;;9.70;99.90;;;;;;4990656;28;20459;-76
2021/12/30 07:04:19;;;;;;;17.67;5.13;;;9.70;99.90;;;;;;4989945;28;20948;-76
2021/12/30 07:06:46;;;;;;;18.60;5.57;;;9.70;99.90;;;;;;4990458;28;20447;-77
2021/12/30 07:09:13;;;;;;;16.00;6.60;;;9.60;99.90;;;;;;4987980;28;20944;-76
2021/12/30 07:11:40;;;;;;;14.83;6.13;;;9.60;99.90;;;;;;4970752;28;20456;-76
2021/12/30 07:14:08;;;;;;;21.73;6.20;;;9.60;99.90;;;;;;4971345;28;20452;-76
2021/12/30 07:16:35;;;;;;;27.77;6.80;;;9.60;99.90;;;;;;4981163;28;20518;-75
2021/12/30 07:19:01;;;;;;;17.20;6.13;;;9.60;99.90;;;;;;4990654;28;20510;-75
2021/12/30 07:21:28;;;;;;;12.00;5.53;;;9.60;99.90;;;;;;4987015;28;20463;-75
2021/12/30 07:23:55;;;;;;;18.27;5.17;;;9.60;99.90;;;;;;4982555;28;20931;-75
2021/12/30 07:26:21;;;;;;;12.53;5.50;;;9.60;99.90;;;;;;4982626;28;20450;-76
2021/12/30 07:28:48;;;;;;;15.10;6.83;;;9.60;99.90;;;;;;4976007;28;20558;-75
2021/12/30 07:31:16;;;;;;;13.43;5.77;;;9.60;99.90;;;;;;4986646;28;20584;-75
2021/12/30 07:33:42;;;;;;;15.87;6.00;;;9.70;99.90;;;;;;4987081;28;20479;-76
2021/12/30 07:36:09;;;;;;;24.90;6.00;;;9.70;99.90;;;;;;4993125;28;20517;-75
2021/12/30 07:38:36;;;;;;;16.33;5.80;;;9.70;99.90;;;;;;4991862;28;20549;-75
2021/12/30 07:41:04;;;;;;;20.07;6.57;;;9.70;99.90;;;;;;4992177;28;20459;-75
2021/12/30 07:43:31;;;;;;;18.60;6.50;;;9.70;99.90;;;;;;4986086;28;20505;-75
2021/12/30 07:45:57;;;;;;;11.63;6.00;;;9.70;99.90;;;;;;4993293;28;20451;-75
2021/12/30 07:48:25;;;;;;;20.67;6.90;;;9.70;99.90;;;;;;4989336;28;21034;-76
2021/12/30 07:50:52;;;;;;;24.50;6.70;;;9.80;99.90;;;;;;4979544;28;20455;-75
2021/12/30 07:53:20;;;;;;;24.60;10.10;;;9.80;99.90;;;;;;4983306;28;20480;-77
2021/12/30 07:55:46;;;;;;;23.00;9.53;;;9.80;99.90;;;;;;4993446;28;20460;-76
2021/12/30 07:58:13;;;;;;;21.63;10.60;;;9.90;99.90;;;;;;4983961;28;20482;-76
2021/12/30 08:00:40;;;;;;;18.43;8.63;;;9.90;99.90;;;;;;4987710;28;20455;-76
2021/12/30 08:03:07;;;;;;;35.33;14.43;;;9.90;99.90;;;;;;4987672;28;20537;-76
2021/12/30 08:05:35;;;;;;;51.30;25.10;;;10.00;99.90;;;;;;4992779;28;20462;-75
2021/12/30 08:08:02;;;;;;;39.77;13.30;;;10.00;99.90;;;;;;4993172;28;20459;-75
2021/12/30 08:10:29;;;;;;;23.13;11.13;;;10.00;99.90;;;;;;4991007;28;20486;-75
2021/12/30 08:12:56;;;;;;;19.50;11.20;;;10.10;99.90;;;;;;4992983;28;20490;-78
2021/12/30 08:15:24;;;;;;;25.90;11.63;;;10.10;99.90;;;;;;4992666;28;20463;-76
2021/12/30 08:17:52;;;;;;;23.73;11.20;;;10.10;99.90;;;;;;4977167;28;21001;-76
2021/12/30 08:20:21;;;;;;;19.80;9.57;;;10.20;99.90;;;;;;4985498;28;20511;-76
2021/12/30 08:22:51;;;;;;;11.77;6.90;;;10.30;99.90;;;;;;4990119;28;20479;-77
2021/12/30 08:25:19;;;;;;;6.07;4.03;;;10.40;99.90;;;;;;4983847;28;20479;-77
2021/12/30 08:27:46;;;;;;;1.50;1.40;;;10.70;99.90;;;;;;4994538;28;20447;-77
2021/12/30 08:30:16;;;;;;;1.20;1.10;;;11.30;99.90;;;;;;4992316;28;20506;-78
2021/12/30 08:32:43;;;;;;;1.20;1.10;;;11.80;99.90;;;;;;4997247;28;20475;-77
2021/12/30 08:35:11;;;;;;;1.43;1.00;;;12.20;99.90;;;;;;4981443;28;20456;-78
2021/12/30 08:37:38;;;;;;;1.10;1.00;;;12.40;99.90;;;;;;4994013;28;20479;-77
2021/12/30 08:40:10;;;;;;;1.10;1.00;;;12.60;99.90;;;;;;4990699;28;20933;-77
2021/12/30 08:42:37;;;;;;;1.20;1.10;;;12.70;99.90;;;;;;4991388;28;20897;-77
2021/12/30 08:45:05;;;;;;;5.93;1.00;;;12.80;99.90;;;;;;4993949;28;20628;-77
2021/12/30 08:47:33;;;;;;;1.40;1.30;;;12.90;99.90;;;;;;4977093;28;20483;-77
2021/12/30 08:50:00;;;;;;;1.10;1.00;;;13.00;99.90;;;;;;4985203;28;20459;-76
2021/12/30 08:52:29;;;;;;;1.20;1.10;;;13.10;99.90;;;;;;4991358;28;20553;-76
2021/12/30 08:54:59;;;;;;;1.17;1.03;;;13.20;99.90;;;;;;4988406;28;20456;-77
2021/12/30 08:57:27;;;;;;;1.00;0.90;;;13.30;99.90;;;;;;4977928;28;20492;-77
2021/12/30 08:59:54;;;;;;;1.10;1.00;;;13.30;99.90;;;;;;4975968;28;20447;-76
2021/12/30 09:02:21;;;;;;;1.00;0.80;;;13.40;99.90;;;;;;4990033;28;20529;-76
2021/12/30 09:04:48;;;;;;;1.20;0.90;;;13.60;99.90;;;;;;4981421;28;20464;-76
2021/12/30 09:07:16;;;;;;;6.40;1.57;;;13.60;99.90;;;;;;4990766;28;20437;-77
2021/12/30 09:09:43;;;;;;;1.00;0.90;;;13.60;99.90;;;;;;4988356;28;20699;-77
2021/12/30 09:12:10;;;;;;;1.00;0.90;;;13.70;99.90;;;;;;4998919;28;20475;-80
2021/12/30 09:14:38;;;;;;;1.17;0.80;;;13.80;99.90;;;;;;4992259;28;20827;-76
2021/12/30 09:17:05;;;;;;;1.00;0.90;;;13.80;99.90;;;;;;4991168;28;20451;-77
2021/12/30 09:19:32;;;;;;;1.00;0.90;;;14.00;99.90;;;;;;4974511;28;20942;-75
2021/12/30 09:21:59;;;;;;;1.00;0.90;;;14.00;99.90;;;;;;4986965;28;20538;-76
2021/12/30 09:24:26;;;;;;;0.97;0.80;;;14.10;99.90;;;;;;4976784;28;20459;-76
2021/12/30 09:26:53;;;;;;;2.27;0.80;;;14.10;99.90;;;;;;4983428;28;20478;-76
2021/12/30 09:29:20;;;;;;;1.10;1.00;;;14.20;99.90;;;;;;4988328;28;20426;-77
2021/12/30 09:31:50;;;;;;;1.50;0.80;;;14.20;99.90;;;;;;4988098;28;20878;-78
2021/12/30 09:34:17;;;;;;;1.00;0.90;;;14.30;99.90;;;;;;4991784;28;20433;-77
2021/12/30 09:36:43;;;;;;;1.00;0.83;;;14.30;99.90;;;;;;5000257;28;20501;-77
2021/12/30 09:39:12;;;;;;;1.67;1.00;;;14.30;99.90;;;;;;4998220;28;20461;-78
2021/12/30 09:41:39;;;;;;;1.00;0.90;;;14.40;99.90;;;;;;4999253;28;20483;-77
2021/12/30 09:44:08;;;;;;;1.83;0.90;;;14.50;99.90;;;;;;4984111;28;20897;-76
2021/12/30 09:46:35;;;;;;;1.00;0.90;;;14.50;99.90;;;;;;4985867;28;20525;-76
2021/12/30 09:49:06;;;;;;;1.00;0.90;;;14.50;99.90;;;;;;4994181;28;20545;-77
2021/12/30 09:51:33;;;;;;;1.30;1.20;;;14.60;99.90;;;;;;4992342;28;20577;-77
2021/12/30 09:54:00;;;;;;;1.50;0.90;;;14.70;99.90;;;;;;4996287;28;20458;-77
2021/12/30 09:56:28;;;;;;;1.10;0.90;;;14.70;99.90;;;;;;4990466;28;20471;-80
2021/12/30 09:58:55;;;;;;;1.23;1.10;;;14.80;99.90;;;;;;4984296;28;20994;-76
2021/12/30 10:01:22;;;;;;;0.97;0.80;;;14.80;99.90;;;;;;4985252;28;20467;-77
2021/12/30 10:03:50;;;;;;;1.70;1.00;;;14.80;99.90;;;;;;4985049;28;20506;-77
2021/12/30 10:06:18;;;;;;;1.00;0.83;;;14.80;99.90;;;;;;4991103;28;20455;-77
2021/12/30 10:08:54;;;;;;;1.00;0.90;;;14.80;99.90;;;;;;4984053;28;20451;-75
2021/12/30 10:11:21;;;;;;;2.40;1.00;;;14.90;99.90;;;;;;4983355;28;20455;-76
2021/12/30 10:13:52;;;;;;;1.00;0.90;;;14.90;99.90;;;;;;4978810;28;20491;-76
2021/12/30 10:16:19;;;;;;;1.73;1.20;;;14.80;99.90;;;;;;4981552;28;20451;-76
2021/12/30 10:18:48;;;;;;;1.10;0.90;;;14.80;99.90;;;;;;4980648;28;20492;-76
2021/12/30 10:21:18;;;;;;;1.97;0.80;;;14.80;99.90;;;;;;4974464;28;20456;-76
2021/12/30 10:23:47;;;;;;;1.00;0.90;;;14.80;99.90;;;;;;4979604;28;20486;-77
2021/12/30 10:26:14;;;;;;;1.00;0.90;;;14.80;99.90;;;;;;4986705;28;20459;-76
2021/12/30 10:28:43;;;;;;;1.17;0.90;;;14.70;99.90;;;;;;4986868;28;20433;-76
2021/12/30 10:31:23;;;;;;;4.20;1.03;;;14.80;99.90;;;;;;4986265;28;20816;-76
2021/12/30 10:33:53;;;;;;;1.20;1.00;;;14.80;99.90;;;;;;4982114;28;20474;-76
2021/12/30 10:36:24;;;;;;;1.00;0.90;;;14.80;99.90;;;;;;4988770;28;20471;-76
2021/12/30 10:38:51;;;;;;;1.10;1.00;;;14.70;99.90;;;;;;4989621;28;20553;-76
2021/12/30 10:41:21;;;;;;;1.83;1.23;;;14.70;99.90;;;;;;4988867;28;20447;-76
2021/12/30 10:43:54;;;;;;;1.30;1.13;;;14.70;99.90;;;;;;4986937;28;20474;-76
2021/12/30 10:46:23;;;;;;;2.43;2.23;;;14.80;99.90;;;;;;4986188;28;20427;-76
2021/12/30 10:49:01;;;;;;;1.30;1.20;;;14.80;99.90;;;;;;4977927;28;20454;-76
2021/12/30 10:51:35;;;;;;;1.20;1.10;;;14.80;99.90;;;;;;4986571;28;20462;-77
2021/12/30 10:54:14;;;;;;;1.00;0.90;;;14.80;99.90;;;;;;4985549;28;20495;-77
2021/12/30 10:56:43;;;;;;;4.00;1.20;;;14.70;99.90;;;;;;4984356;28;20456;-76
2021/12/30 10:59:20;;;;;;;1.30;1.10;;;14.70;99.90;;;;;;4977364;28;20549;-76
2021/12/30 11:01:49;;;;;;;1.03;0.93;;;14.70;99.90;;;;;;4982678;28;20465;-76
2021/12/30 11:04:17;;;;;;;1.30;1.20;;;14.90;99.90;;;;;;4985638;28;20472;-77
2021/12/30 11:06:46;;;;;;;1.37;0.90;;;14.80;99.90;;;;;;4988094;28;20517;-76
2021/12/30 11:09:17;;;;;;;1.20;1.10;;;14.90;99.90;;;;;;4988588;28;20506;-76
2021/12/30 11:11:47;;;;;;;1.77;1.33;;;14.90;99.90;;;;;;4986502;28;21214;-77
2021/12/30 11:14:16;;;;;;;1.00;0.90;;;15.00;99.90;;;;;;4988993;28;20482;-76
2021/12/30 11:17:10;;;;;;;1.00;0.90;;;14.90;99.90;;;;;;4984506;28;20509;-76
2021/12/30 11:19:39;;;;;;;1.00;0.90;;;14.90;99.90;;;;;;4969033;28;20494;-76
2021/12/30 11:22:10;;;;;;;1.20;1.10;;;15.00;99.90;;;;;;4980875;28;20515;-77
2021/12/30 11:24:37;;;;;;;1.00;0.90;;;15.00;99.90;;;;;;4976479;28;20438;-76
2021/12/30 11:27:08;;;;;;;2.20;1.17;;;15.00;99.90;;;;;;4977554;28;20497;-76
2021/12/30 11:29:36;;;;;;;1.50;1.40;;;15.00;99.90;;;;;;4987947;28;20455;-76
2021/12/30 11:32:05;;;;;;;1.20;1.10;;;15.00;99.90;;;;;;4986556;28;20594;-77
2021/12/30 11:34:31;;;;;;;1.20;1.10;;;15.10;99.90;;;;;;4987945;28;20429;-77
2021/12/30 11:36:59;;;;;;;1.97;1.10;;;15.10;99.90;;;;;;4977342;28;20430;-77
2021/12/30 11:39:27;;;;;;;2.07;1.10;;;15.10;99.90;;;;;;4982927;28;20468;-77
2021/12/30 11:41:58;;;;;;;1.13;1.03;;;15.20;99.90;;;;;;4973011;28;21003;-77
2021/12/30 11:44:41;;;;;;;1.20;1.10;;;15.20;99.90;;;;;;4975525;28;20438;-77
2021/12/30 11:47:10;;;;;;;1.10;1.00;;;15.30;99.90;;;;;;4986897;28;20488;-76
2021/12/30 11:49:58;;;;;;;1.23;1.10;;;15.20;99.90;;;;;;4984490;28;20438;-76
2021/12/30 11:53:01;;;;;;;1.30;1.20;;;15.20;99.90;;;;;;4988315;28;20493;-76
2021/12/30 11:55:54;;;;;;;1.53;1.43;;;15.30;99.90;;;;;;4982329;28;20434;-76
2021/12/30 11:58:42;;;;;;;2.57;1.73;;;15.30;99.90;;;;;;4985367;28;20489;-77
2021/12/30 12:01:28;;;;;;;1.53;1.43;;;15.30;99.90;;;;;;4978370;28;20497;-77
2021/12/30 12:04:00;;;;;;;2.67;2.20;;;15.40;99.90;;;;;;4989356;28;20504;-77
2021/12/30 12:06:33;;;;;;;3.90;1.37;;;15.50;99.90;;;;;;4984305;28;20430;-77
2021/12/30 12:09:03;;;;;;;1.27;1.17;;;15.50;99.90;;;;;;4978586;28;20514;-76
2021/12/30 12:11:33;;;;;;;2.17;1.70;;;15.50;99.90;;;;;;5000248;23;20849;-66
2021/12/30 12:14:13;;;;;;;1.40;1.30;;;15.50;99.90;;;;;;4977373;28;20425;-67
2021/12/30 12:16:53;;;;;;;2.53;1.30;;;15.70;99.90;;;;;;4981103;28;20414;-67
2021/12/30 12:19:21;;;;;;;1.57;1.30;;;15.70;99.90;;;;;;4975502;28;21011;-67
2021/12/30 12:21:54;;;;;;;1.30;1.20;;;15.70;99.90;;;;;;4969932;28;20430;-67
2021/12/30 12:24:33;;;;;;;1.70;1.50;;;15.80;99.90;;;;;;4972527;28;20452;-67
2021/12/30 12:27:04;;;;;;;1.40;1.30;;;15.70;99.90;;;;;;4971371;28;20924;-67
2021/12/30 12:29:35;;;;;;;1.20;1.10;;;15.70;99.90;;;;;;4973636;28;20456;-67
2021/12/30 12:32:09;;;;;;;1.20;1.10;;;15.60;99.90;;;;;;4968939;28;20530;-67
2021/12/30 12:34:39;;;;;;;1.60;1.50;;;15.70;99.90;;;;;;4970528;28;20443;-67
2021/12/30 12:37:47;;;;;;;1.30;1.20;;;15.70;99.90;;;;;;4964052;28;20506;-67
2021/12/30 12:40:23;;;;;;;1.30;1.20;;;15.60;99.90;;;;;;4967804;28;20551;-67
2021/12/30 12:43:09;;;;;;;1.20;1.10;;;15.60;99.90;;;;;;4965899;28;20433;-68
2021/12/30 12:45:40;;;;;;;1.13;1.03;;;15.50;99.90;;;;;;4970983;28;20481;-70
2021/12/30 12:48:40;;;;;;;2.70;1.07;;;15.40;99.90;;;;;;4969958;28;20493;-70
2021/12/30 12:51:23;;;;;;;1.60;1.50;;;15.20;99.90;;;;;;4963119;28;20522;-70